Time;durP1;ratioP1;P1;durP2;ratioP2;P2;SDS_P1;SDS_P2;PMS_P1;PMS_P2;Temp;Humidity;BMP_temperature;BMP_pressure;BME280_temperature;BME280_humidity;BME280_pressure;Samples;Min_cycle;Max_cycle;Signal;HPM_P1;HPM_P2
2021/08/01 00:00:33;;;;;;;28.77;18.05;;;;;;;;;;5073762;28;20103;-63
2021/08/01 00:02:59;;;;;;;27.58;18.40;;;;;;;;;;5073733;28;20150;-64
2021/08/01 00:05:25;;;;;;;29.98;18.42;;;;;;;;;;5073640;28;20032;-64
2021/08/01 00:07:51;;;;;;;28.27;18.00;;;;;;;;;;5073744;28;20146;-64
2021/08/01 00:10:17;;;;;;;26.10;17.77;;;;;;;;;;5055485;28;20027;-63
2021/08/01 00:12:43;;;;;;;29.02;18.67;;;;;;;;;;5073734;28;20028;-64
2021/08/01 00:15:10;;;;;;;29.92;19.27;;;;;;;;;;5055868;28;20423;-63
2021/08/01 00:17:36;;;;;;;28.27;17.92;;;;;;;;;;5073385;28;20120;-64
2021/08/01 00:20:03;;;;;;;29.48;19.25;;;;;;;;;;5055259;28;20531;-63
2021/08/01 00:22:29;;;;;;;33.63;19.08;;;;;;;;;;5055501;28;20025;-64
2021/08/01 00:24:55;;;;;;;29.25;20.17;;;;;;;;;;5073085;28;20107;-63
2021/08/01 00:27:21;;;;;;;31.42;19.40;;;;;;;;;;5073100;28;20075;-63
2021/08/01 00:29:47;;;;;;;30.02;19.55;;;;;;;;;;5073066;28;20048;-64
2021/08/01 00:32:13;;;;;;;31.60;20.20;;;;;;;;;;5055062;28;20035;-64
2021/08/01 00:34:38;;;;;;;28.92;20.05;;;;;;;;;;5073149;28;20459;-64
2021/08/01 00:37:05;;;;;;;28.92;18.75;;;;;;;;;;5072737;28;20024;-64
2021/08/01 00:39:30;;;;;;;29.02;18.90;;;;;;;;;;5055112;28;20035;-64
2021/08/01 00:41:57;;;;;;;29.13;18.92;;;;;;;;;;5054890;28;20025;-64
2021/08/01 00:44:23;;;;;;;29.33;19.33;;;;;;;;;;5072907;28;20067;-65
2021/08/01 00:46:49;;;;;;;29.05;18.90;;;;;;;;;;5054901;28;20036;-64
2021/08/01 00:49:15;;;;;;;29.83;19.80;;;;;;;;;;5072977;28;20508;-64
2021/08/01 00:51:41;;;;;;;39.97;19.23;;;;;;;;;;5072805;28;20025;-63
2021/08/01 00:54:07;;;;;;;29.77;18.27;;;;;;;;;;5073212;28;20047;-64
2021/08/01 00:56:33;;;;;;;27.77;18.52;;;;;;;;;;5072403;28;20021;-64
2021/08/01 00:58:59;;;;;;;26.80;16.75;;;;;;;;;;5072586;28;20115;-64
2021/08/01 01:01:32;;;;;;;28.58;18.48;;;;;;;;;;5072653;28;20388;-64
2021/08/01 01:04:17;;;;;;;26.73;16.35;;;;;;;;;;5072580;28;20374;-64
2021/08/01 01:07:01;;;;;;;27.13;16.70;;;;;;;;;;5072347;28;20028;-64
2021/08/01 01:09:36;;;;;;;26.95;18.00;;;;;;;;;;5072682;28;20029;-64
2021/08/01 01:12:06;;;;;;;26.25;16.38;;;;;;;;;;5072349;28;20028;-64
2021/08/01 01:14:34;;;;;;;27.38;17.10;;;;;;;;;;5054553;28;20083;-64
2021/08/01 01:17:01;;;;;;;29.10;16.65;;;;;;;;;;5072014;28;20392;-64
2021/08/01 01:19:46;;;;;;;25.10;15.63;;;;;;;;;;5072309;28;20028;-64
2021/08/01 01:22:16;;;;;;;30.90;15.98;;;;;;;;;;5072350;28;20017;-64
2021/08/01 01:24:43;;;;;;;26.38;16.05;;;;;;;;;;5054655;28;20029;-64
2021/08/01 01:27:14;;;;;;;25.47;15.43;;;;;;;;;;5054160;28;20056;-65
2021/08/01 01:29:46;;;;;;;26.08;15.57;;;;;;;;;;5054159;28;20174;-64
2021/08/01 01:32:21;;;;;;;25.90;14.80;;;;;;;;;;5072161;28;20077;-64
2021/08/01 01:34:56;;;;;;;25.15;15.30;;;;;;;;;;5072114;28;20024;-64
2021/08/01 01:37:23;;;;;;;24.52;15.25;;;;;;;;;;5037486;28;20021;-64
2021/08/01 01:39:50;;;;;;;26.45;15.52;;;;;;;;;;5071893;28;20480;-65
2021/08/01 01:42:17;;;;;;;24.80;15.82;;;;;;;;;;5072404;28;20048;-64
2021/08/01 01:44:44;;;;;;;23.95;15.30;;;;;;;;;;5053994;28;20028;-64
2021/08/01 01:47:10;;;;;;;27.73;15.95;;;;;;;;;;5071798;28;20032;-63
2021/08/01 01:49:37;;;;;;;26.40;15.48;;;;;;;;;;5053744;28;20429;-64
2021/08/01 01:52:04;;;;;;;24.98;16.23;;;;;;;;;;5071740;28;20472;-64
2021/08/01 01:54:30;;;;;;;24.83;15.88;;;;;;;;;;5053363;28;20407;-63
2021/08/01 01:56:56;;;;;;;27.17;15.90;;;;;;;;;;5053804;28;20052;-64
2021/08/01 01:59:22;;;;;;;26.23;15.50;;;;;;;;;;5071698;28;20029;-64
2021/08/01 02:01:48;;;;;;;26.98;17.15;;;;;;;;;;5071732;28;20524;-64
2021/08/01 02:04:14;;;;;;;25.27;15.80;;;;;;;;;;5071843;28;20031;-64
2021/08/01 02:06:40;;;;;;;25.17;15.68;;;;;;;;;;5071922;28;20032;-64
2021/08/01 02:09:09;;;;;;;26.13;16.33;;;;;;;;;;5072204;28;20029;-64
2021/08/01 02:11:54;;;;;;;24.92;14.80;;;;;;;;;;5071573;28;20100;-64
2021/08/01 02:14:23;;;;;;;24.48;14.52;;;;;;;;;;5054024;28;20028;-64
2021/08/01 02:16:51;;;;;;;27.02;15.75;;;;;;;;;;5071825;28;20120;-64
2021/08/01 02:19:18;;;;;;;28.02;16.77;;;;;;;;;;5071623;28;20060;-64
2021/08/01 02:21:44;;;;;;;28.60;18.77;;;;;;;;;;5071804;28;20059;-64
2021/08/01 02:24:11;;;;;;;26.88;15.82;;;;;;;;;;5071572;28;20050;-64
2021/08/01 02:26:37;;;;;;;27.83;17.00;;;;;;;;;;5071375;28;20221;-64
2021/08/01 02:29:04;;;;;;;28.65;17.27;;;;;;;;;;5071742;28;20056;-64
2021/08/01 02:31:31;;;;;;;27.92;17.13;;;;;;;;;;5071396;28;20441;-64
2021/08/01 02:33:58;;;;;;;28.08;15.50;;;;;;;;;;5071624;28;20315;-64
2021/08/01 02:36:25;;;;;;;28.67;17.20;;;;;;;;;;5071086;28;20017;-64
2021/08/01 02:38:53;;;;;;;25.00;15.48;;;;;;;;;;5071311;28;20027;-64
2021/08/01 02:41:21;;;;;;;26.08;16.15;;;;;;;;;;5071545;28;20086;-64
2021/08/01 02:43:49;;;;;;;23.95;16.40;;;;;;;;;;5071487;28;20110;-64
2021/08/01 02:46:16;;;;;;;24.23;15.57;;;;;;;;;;5071252;28;20107;-64
2021/08/01 02:48:42;;;;;;;27.40;16.67;;;;;;;;;;5071388;28;20560;-63
2021/08/01 02:51:08;;;;;;;29.52;17.48;;;;;;;;;;5071247;28;20032;-64
2021/08/01 02:53:38;;;;;;;27.45;16.33;;;;;;;;;;5053460;28;20025;-64
2021/08/01 02:56:05;;;;;;;28.75;16.58;;;;;;;;;;5071227;28;20024;-64
2021/08/01 02:58:32;;;;;;;27.65;16.60;;;;;;;;;;5071241;28;20013;-64
2021/08/01 03:00:58;;;;;;;26.10;15.50;;;;;;;;;;5071123;28;20025;-64
2021/08/01 03:03:24;;;;;;;27.50;16.05;;;;;;;;;;5071289;28;20032;-64
2021/08/01 03:05:51;;;;;;;26.08;15.10;;;;;;;;;;5074592;28;20108;-64
2021/08/01 03:08:17;;;;;;;27.67;16.45;;;;;;;;;;5074866;28;20047;-63
2021/08/01 03:10:44;;;;;;;24.63;15.45;;;;;;;;;;5056702;28;20025;-64
2021/08/01 03:13:10;;;;;;;26.08;16.08;;;;;;;;;;5074849;28;20020;-63
2021/08/01 03:15:36;;;;;;;26.52;15.40;;;;;;;;;;5056429;28;20017;-64
2021/08/01 03:18:02;;;;;;;28.55;17.02;;;;;;;;;;5074472;28;20029;-64
2021/08/01 03:20:28;;;;;;;24.05;15.13;;;;;;;;;;5056522;28;20029;-64
2021/08/01 03:22:54;;;;;;;26.35;14.98;;;;;;;;;;5056828;28;20551;-64
2021/08/01 03:25:20;;;;;;;27.92;16.23;;;;;;;;;;5074207;28;20059;-64
2021/08/01 03:27:46;;;;;;;28.67;17.25;;;;;;;;;;5074593;28;20481;-64
2021/08/01 03:30:12;;;;;;;27.15;16.05;;;;;;;;;;5074207;28;20418;-64
2021/08/01 03:32:38;;;;;;;26.38;16.38;;;;;;;;;;5074440;28;20388;-64
2021/08/01 03:35:04;;;;;;;28.35;16.63;;;;;;;;;;5074046;28;20066;-64
2021/08/01 03:37:30;;;;;;;24.33;15.18;;;;;;;;;;5074082;28;20455;-64
2021/08/01 03:39:56;;;;;;;25.75;16.08;;;;;;;;;;5073939;28;20086;-64
2021/08/01 03:42:23;;;;;;;27.25;16.80;;;;;;;;;;5056520;28;20047;-64
2021/08/01 03:44:49;;;;;;;28.02;16.80;;;;;;;;;;5074037;28;20449;-64
2021/08/01 03:47:15;;;;;;;29.02;17.10;;;;;;;;;;5073437;28;20408;-64
2021/08/01 03:49:44;;;;;;;26.77;16.55;;;;;;;;;;5055988;28;20385;-64
2021/08/01 03:52:11;;;;;;;26.02;16.00;;;;;;;;;;5074132;28;20108;-63
2021/08/01 03:54:36;;;;;;;26.13;15.80;;;;;;;;;;5056506;28;20032;-64
2021/08/01 03:57:02;;;;;;;26.50;15.77;;;;;;;;;;5073762;28;20417;-65
2021/08/01 03:59:28;;;;;;;26.45;15.98;;;;;;;;;;5056240;28;20189;-64
2021/08/01 04:01:54;;;;;;;30.67;17.10;;;;;;;;;;5074007;28;20214;-64
2021/08/01 04:04:20;;;;;;;26.60;16.33;;;;;;;;;;5073658;28;20039;-64
2021/08/01 04:06:46;;;;;;;27.98;16.92;;;;;;;;;;5055586;28;20031;-63
2021/08/01 04:09:12;;;;;;;28.58;16.77;;;;;;;;;;5073645;28;20052;-64
2021/08/01 04:11:43;;;;;;;25.95;15.50;;;;;;;;;;5055593;28;20060;-62
2021/08/01 04:14:08;;;;;;;27.17;15.93;;;;;;;;;;5073666;28;20029;-64
2021/08/01 04:16:36;;;;;;;30.40;18.00;;;;;;;;;;5054684;28;20412;-64
2021/08/01 04:19:06;;;;;;;28.58;16.40;;;;;;;;;;5038985;28;20021;-64
2021/08/01 04:21:32;;;;;;;28.52;16.42;;;;;;;;;;5073881;28;20025;-65
2021/08/01 04:23:58;;;;;;;29.35;17.02;;;;;;;;;;5055498;28;20224;-64
2021/08/01 04:26:24;;;;;;;31.73;18.55;;;;;;;;;;5073213;28;20103;-64
2021/08/01 04:28:50;;;;;;;28.60;17.45;;;;;;;;;;5055438;28;20505;-64
2021/08/01 04:31:16;;;;;;;31.02;18.73;;;;;;;;;;5055342;28;20036;-64
2021/08/01 04:33:42;;;;;;;28.77;17.50;;;;;;;;;;5055318;28;20055;-64
2021/08/01 04:36:08;;;;;;;29.38;17.30;;;;;;;;;;5054970;28;20369;-62
2021/08/01 04:38:34;;;;;;;26.95;16.80;;;;;;;;;;5055463;28;20031;-64
2021/08/01 04:41:00;;;;;;;30.33;18.15;;;;;;;;;;5073203;28;20050;-64
2021/08/01 04:43:26;;;;;;;29.67;18.85;;;;;;;;;;5055413;28;20123;-64
2021/08/01 04:45:52;;;;;;;28.92;17.67;;;;;;;;;;5072797;28;20028;-64
2021/08/01 04:48:18;;;;;;;27.10;17.00;;;;;;;;;;5055059;28;20074;-63
2021/08/01 04:50:44;;;;;;;27.90;17.23;;;;;;;;;;5055043;28;20055;-64
2021/08/01 04:53:10;;;;;;;27.70;17.85;;;;;;;;;;5072936;28;20135;-64
2021/08/01 04:55:36;;;;;;;32.97;18.95;;;;;;;;;;5054642;28;20056;-64
2021/08/01 04:58:02;;;;;;;28.40;18.65;;;;;;;;;;5072796;28;20430;-64
2021/08/01 05:00:28;;;;;;;29.95;18.65;;;;;;;;;;5054583;28;20082;-64
2021/08/01 05:02:54;;;;;;;32.97;18.85;;;;;;;;;;5072843;28;20388;-64
2021/08/01 05:05:20;;;;;;;31.20;18.77;;;;;;;;;;5072670;28;20036;-64
2021/08/01 05:07:46;;;;;;;28.85;17.67;;;;;;;;;;5072659;28;20028;-64
2021/08/01 05:10:12;;;;;;;31.83;19.17;;;;;;;;;;5072591;28;20084;-64
2021/08/01 05:12:38;;;;;;;30.17;19.10;;;;;;;;;;5072637;28;20032;-63
2021/08/01 05:15:05;;;;;;;29.90;19.95;;;;;;;;;;5054379;28;20110;-64
2021/08/01 05:17:31;;;;;;;30.40;19.95;;;;;;;;;;5072297;28;20025;-64
2021/08/01 05:19:57;;;;;;;29.95;18.02;;;;;;;;;;5054348;28;20047;-64
2021/08/01 05:22:23;;;;;;;30.25;19.83;;;;;;;;;;5054581;28;20028;-64
2021/08/01 05:24:49;;;;;;;35.00;20.38;;;;;;;;;;5072400;28;20024;-64
2021/08/01 05:27:15;;;;;;;30.25;19.80;;;;;;;;;;5071417;28;20024;-64
2021/08/01 05:29:41;;;;;;;31.67;19.95;;;;;;;;;;5054045;28;20067;-64
2021/08/01 05:32:07;;;;;;;37.17;21.38;;;;;;;;;;5071972;28;20032;-64
2021/08/01 05:34:33;;;;;;;29.98;18.48;;;;;;;;;;5054143;28;20028;-64
2021/08/01 05:37:00;;;;;;;27.50;18.23;;;;;;;;;;5071877;28;20027;-64
2021/08/01 05:39:26;;;;;;;30.48;19.52;;;;;;;;;;5093741;22;20028;-60
2021/08/01 05:41:52;;;;;;;31.42;20.50;;;;;;;;;;5052337;28;20042;-60
2021/08/01 05:44:18;;;;;;;30.05;19.65;;;;;;;;;;5052510;28;20025;-60
2021/08/01 05:46:44;;;;;;;32.60;21.58;;;;;;;;;;5052113;28;20029;-60
2021/08/01 05:49:10;;;;;;;33.80;20.40;;;;;;;;;;5051156;28;20024;-60
2021/08/01 05:51:37;;;;;;;31.75;20.73;;;;;;;;;;5050803;28;20477;-57
2021/08/01 05:54:03;;;;;;;29.37;20.00;;;;;;;;;;5034304;28;20021;-60
2021/08/01 05:56:29;;;;;;;31.92;20.25;;;;;;;;;;5034167;28;20721;-60
2021/08/01 05:58:55;;;;;;;32.20;20.33;;;;;;;;;;5052380;28;20476;-60
2021/08/01 06:01:21;;;;;;;31.45;21.38;;;;;;;;;;5051989;28;20029;-60
2021/08/01 06:03:47;;;;;;;34.88;22.50;;;;;;;;;;5052051;28;20024;-60
2021/08/01 06:06:14;;;;;;;33.30;21.50;;;;;;;;;;5034046;28;20029;-61
2021/08/01 06:08:41;;;;;;;34.60;21.90;;;;;;;;;;5049511;28;20112;-61
2021/08/01 06:11:07;;;;;;;36.80;22.35;;;;;;;;;;5051634;28;20045;-61
2021/08/01 06:13:34;;;;;;;30.83;22.40;;;;;;;;;;5051944;28;20482;-61
2021/08/01 06:16:00;;;;;;;32.47;23.02;;;;;;;;;;5033520;28;20029;-62
2021/08/01 06:18:26;;;;;;;33.25;22.63;;;;;;;;;;5051995;28;20454;-61
2021/08/01 06:21:02;;;;;;;30.95;21.92;;;;;;;;;;5051726;28;20131;-61
2021/08/01 06:23:28;;;;;;;31.65;21.45;;;;;;;;;;5051896;28;20021;-62
2021/08/01 06:25:54;;;;;;;30.35;21.30;;;;;;;;;;5051533;28;20033;-62
2021/08/01 06:28:20;;;;;;;29.50;21.02;;;;;;;;;;5052198;28;20018;-62
2021/08/01 06:30:46;;;;;;;32.20;19.65;;;;;;;;;;5051916;28;20029;-61
2021/08/01 06:33:12;;;;;;;30.65;21.65;;;;;;;;;;5051401;28;20370;-61
2021/08/01 06:35:38;;;;;;;29.23;20.75;;;;;;;;;;5032579;28;20017;-61
2021/08/01 06:38:04;;;;;;;28.73;20.08;;;;;;;;;;5051245;28;20025;-61
2021/08/01 06:40:30;;;;;;;35.75;22.58;;;;;;;;;;5054562;28;20132;-61
2021/08/01 06:42:56;;;;;;;31.92;22.45;;;;;;;;;;5055127;28;20025;-61
2021/08/01 06:45:22;;;;;;;32.00;21.75;;;;;;;;;;5054993;28;20021;-61
2021/08/01 06:47:48;;;;;;;30.58;21.33;;;;;;;;;;5055086;28;20055;-61
2021/08/01 06:50:14;;;;;;;30.10;21.95;;;;;;;;;;5036835;28;20021;-61
2021/08/01 06:52:40;;;;;;;31.50;22.25;;;;;;;;;;5037175;28;20400;-61
2021/08/01 06:55:06;;;;;;;31.65;22.88;;;;;;;;;;5055020;28;20028;-64
2021/08/01 06:57:32;;;;;;;31.58;22.67;;;;;;;;;;5037088;28;20021;-57
2021/08/01 06:59:58;;;;;;;33.30;23.23;;;;;;;;;;5054980;28;20389;-60
2021/08/01 07:02:26;;;;;;;31.50;21.42;;;;;;;;;;5037260;28;20029;-58
2021/08/01 07:04:52;;;;;;;33.97;23.50;;;;;;;;;;5055119;28;20104;-67
2021/08/01 07:07:18;;;;;;;33.17;22.63;;;;;;;;;;5037045;28;20115;-60
2021/08/01 07:09:44;;;;;;;31.50;22.88;;;;;;;;;;5036981;28;20025;-60
2021/08/01 07:12:10;;;;;;;32.17;22.77;;;;;;;;;;5036905;28;20544;-60
2021/08/01 07:14:36;;;;;;;31.83;21.88;;;;;;;;;;5054924;28;20384;-60
2021/08/01 07:17:03;;;;;;;29.70;21.73;;;;;;;;;;5036758;28;20040;-60
2021/08/01 07:19:29;;;;;;;32.10;22.77;;;;;;;;;;5054205;28;20433;-60
2021/08/01 07:21:55;;;;;;;33.72;20.27;;;;;;;;;;5054608;28;20122;-59
2021/08/01 07:24:21;;;;;;;29.13;20.85;;;;;;;;;;5036907;28;20025;-60
2021/08/01 07:26:47;;;;;;;30.98;20.17;;;;;;;;;;5036374;28;20033;-59
2021/08/01 07:29:13;;;;;;;28.63;18.95;;;;;;;;;;5054688;28;20025;-64
2021/08/01 07:31:39;;;;;;;31.63;18.20;;;;;;;;;;5036750;28;20080;-66
2021/08/01 07:34:05;;;;;;;31.20;18.30;;;;;;;;;;5054993;28;20475;-59
2021/08/01 07:36:31;;;;;;;29.42;19.77;;;;;;;;;;5036599;28;20104;-61
2021/08/01 07:38:57;;;;;;;29.17;19.58;;;;;;;;;;5054568;28;20032;-59
2021/08/01 07:41:23;;;;;;;30.30;20.08;;;;;;;;;;5036409;28;20079;-61
2021/08/01 07:43:51;;;;;;;28.45;18.95;;;;;;;;;;5036719;28;20056;-60
2021/08/01 07:46:17;;;;;;;26.60;19.27;;;;;;;;;;5054639;28;20029;-58
2021/08/01 07:48:43;;;;;;;26.15;17.52;;;;;;;;;;5054353;28;20390;-59
2021/08/01 07:51:09;;;;;;;26.50;17.35;;;;;;;;;;5053186;28;20032;-59
2021/08/01 07:53:35;;;;;;;27.02;18.02;;;;;;;;;;5036641;28;20535;-58
2021/08/01 07:56:01;;;;;;;24.77;17.02;;;;;;;;;;5054112;28;20096;-59
2021/08/01 07:58:27;;;;;;;25.20;16.38;;;;;;;;;;5036138;28;20018;-60
2021/08/01 08:00:54;;;;;;;27.20;16.48;;;;;;;;;;5036325;28;20094;-59
2021/08/01 08:03:20;;;;;;;25.50;16.08;;;;;;;;;;5054393;28;20020;-61
2021/08/01 08:05:46;;;;;;;24.00;16.08;;;;;;;;;;5053896;28;20099;-60
2021/08/01 08:08:11;;;;;;;21.73;14.98;;;;;;;;;;5054010;28;20092;-60
2021/08/01 08:10:37;;;;;;;24.30;16.02;;;;;;;;;;5035699;28;20028;-57
2021/08/01 08:13:04;;;;;;;21.85;14.60;;;;;;;;;;5053834;28;20470;-61
2021/08/01 08:15:30;;;;;;;23.20;14.50;;;;;;;;;;5035926;28;20074;-60
2021/08/01 08:17:56;;;;;;;21.88;13.95;;;;;;;;;;5053673;28;20025;-60
2021/08/01 08:20:22;;;;;;;24.15;14.45;;;;;;;;;;5036101;28;20017;-61
2021/08/01 08:22:48;;;;;;;22.95;13.98;;;;;;;;;;5053969;28;20029;-60
2021/08/01 08:25:14;;;;;;;20.67;13.77;;;;;;;;;;5053617;28;20052;-60
2021/08/01 08:27:41;;;;;;;20.35;13.15;;;;;;;;;;5036093;28;20052;-59
2021/08/01 08:30:08;;;;;;;20.55;13.05;;;;;;;;;;5035850;28;20025;-60
2021/08/01 08:32:34;;;;;;;22.83;14.18;;;;;;;;;;5053323;28;20076;-59
2021/08/01 08:35:01;;;;;;;21.17;13.43;;;;;;;;;;5053530;28;20021;-60
2021/08/01 08:37:27;;;;;;;22.77;13.95;;;;;;;;;;5053028;28;20035;-60
2021/08/01 08:39:53;;;;;;;20.48;13.02;;;;;;;;;;5053085;28;20036;-59
2021/08/01 08:42:19;;;;;;;22.30;13.40;;;;;;;;;;5053584;28;20025;-59
2021/08/01 08:44:45;;;;;;;20.13;13.60;;;;;;;;;;5053396;28;20032;-60
2021/08/01 08:47:17;;;;;;;21.73;14.02;;;;;;;;;;5035228;28;20033;-58
2021/08/01 08:49:45;;;;;;;20.58;14.23;;;;;;;;;;5053282;28;20342;-58
2021/08/01 08:52:11;;;;;;;21.85;13.88;;;;;;;;;;5035502;28;20028;-58
2021/08/01 08:54:41;;;;;;;22.30;14.90;;;;;;;;;;5035037;28;20527;-61
2021/08/01 08:57:12;;;;;;;22.02;13.68;;;;;;;;;;5052893;28;20041;-59
2021/08/01 08:59:39;;;;;;;20.58;13.18;;;;;;;;;;5035037;28;20075;-60
2021/08/01 09:02:05;;;;;;;19.63;12.57;;;;;;;;;;5035140;28;20029;-59
2021/08/01 09:04:31;;;;;;;20.17;12.30;;;;;;;;;;5035183;28;20031;-59
2021/08/01 09:06:57;;;;;;;21.67;11.90;;;;;;;;;;5034743;28;20481;-60
2021/08/01 09:09:23;;;;;;;21.33;13.90;;;;;;;;;;5034421;28;20032;-57
2021/08/01 09:11:52;;;;;;;22.33;14.82;;;;;;;;;;5034816;28;20456;-59
2021/08/01 09:14:22;;;;;;;20.42;14.35;;;;;;;;;;5052450;28;20021;-55
2021/08/01 09:16:49;;;;;;;19.42;13.32;;;;;;;;;;5034537;28;20028;-60
2021/08/01 09:19:31;;;;;;;18.75;12.85;;;;;;;;;;5052433;28;20029;-58
2021/08/01 09:22:33;;;;;;;20.73;12.98;;;;;;;;;;5052579;28;20021;-60
2021/08/01 09:24:59;;;;;;;19.50;13.82;;;;;;;;;;5010577;28;20298;-59
2021/08/01 09:27:26;;;;;;;20.13;13.13;;;;;;;;;;5043756;28;20163;-60
2021/08/01 09:29:52;;;;;;;20.80;13.32;;;;;;;;;;5034494;28;20452;-60
2021/08/01 09:32:19;;;;;;;20.10;14.15;;;;;;;;;;5052339;28;20064;-60
2021/08/01 09:34:46;;;;;;;20.95;14.57;;;;;;;;;;5052542;28;20025;-61
2021/08/01 09:37:13;;;;;;;21.00;14.10;;;;;;;;;;5034706;28;20025;-60
2021/08/01 09:39:43;;;;;;;21.70;14.50;;;;;;;;;;5034471;28;20032;-60
2021/08/01 09:42:09;;;;;;;20.27;14.55;;;;;;;;;;5034358;28;20048;-61
2021/08/01 09:44:40;;;;;;;20.85;14.00;;;;;;;;;;5034187;28;20044;-60
2021/08/01 09:47:06;;;;;;;22.08;14.30;;;;;;;;;;5051736;28;20401;-60
2021/08/01 09:49:32;;;;;;;19.40;14.70;;;;;;;;;;5051986;28;20557;-59
2021/08/01 09:52:01;;;;;;;18.85;13.35;;;;;;;;;;5051820;28;20033;-62
2021/08/01 09:54:28;;;;;;;19.42;14.25;;;;;;;;;;5051875;28;20218;-60
2021/08/01 09:56:55;;;;;;;19.80;13.75;;;;;;;;;;5033888;28;20036;-57
2021/08/01 09:59:22;;;;;;;19.70;14.32;;;;;;;;;;5033961;28;20055;-59
2021/08/01 10:01:57;;;;;;;19.17;14.30;;;;;;;;;;5051936;28;20051;-63
2021/08/01 10:04:23;;;;;;;19.83;14.30;;;;;;;;;;5052088;28;20039;-61
2021/08/01 10:07:02;;;;;;;19.90;13.98;;;;;;;;;;5051603;28;20052;-58
2021/08/01 10:09:27;;;;;;;;;;;;;;;;;;5033876;28;20029;-58
2021/08/01 10:11:53;;;;;;;19.33;14.82;;;;;;;;;;5033308;28;19908;-60
2021/08/01 10:14:19;;;;;;;19.83;14.48;;;;;;;;;;5052139;28;20023;-59
2021/08/01 10:16:45;;;;;;;20.98;15.85;;;;;;;;;;5055176;28;20500;-62
2021/08/01 10:19:12;;;;;;;20.67;15.65;;;;;;;;;;5055603;28;20018;-60
2021/08/01 10:21:39;;;;;;;20.15;15.00;;;;;;;;;;5034689;28;20033;-61
2021/08/01 10:24:06;;;;;;;20.02;14.68;;;;;;;;;;5037610;28;20029;-63
2021/08/01 10:26:37;;;;;;;20.52;14.57;;;;;;;;;;5037274;28;20452;-59
2021/08/01 10:29:06;;;;;;;19.42;15.15;;;;;;;;;;5055798;28;20078;-60
2021/08/01 10:31:34;;;;;;;20.10;14.50;;;;;;;;;;5055712;28;20028;-61
2021/08/01 10:34:00;;;;;;;22.92;15.48;;;;;;;;;;5055820;28;20100;-62
2021/08/01 10:36:27;;;;;;;21.23;14.65;;;;;;;;;;5055394;28;20567;-61
2021/08/01 10:38:59;;;;;;;21.50;15.02;;;;;;;;;;5037689;28;20155;-61
2021/08/01 10:41:25;;;;;;;20.17;14.55;;;;;;;;;;5055583;28;20444;-68
2021/08/01 10:43:52;;;;;;;21.65;14.45;;;;;;;;;;5037367;28;20370;-65
2021/08/01 10:46:19;;;;;;;19.55;15.13;;;;;;;;;;5037274;28;20500;-64
2021/08/01 10:48:46;;;;;;;19.48;14.98;;;;;;;;;;5037786;28;20143;-65
2021/08/01 10:51:12;;;;;;;19.05;14.40;;;;;;;;;;5055602;28;20025;-65
2021/08/01 10:53:38;;;;;;;21.45;13.48;;;;;;;;;;5055512;28;20053;-64
2021/08/01 10:56:07;;;;;;;18.60;15.00;;;;;;;;;;5055675;28;20075;-65
2021/08/01 10:58:36;;;;;;;17.73;13.15;;;;;;;;;;5037475;28;20087;-64
2021/08/01 11:01:04;;;;;;;18.92;13.30;;;;;;;;;;5055145;28;20297;-64
2021/08/01 11:03:30;;;;;;;20.42;14.15;;;;;;;;;;5037450;28;20025;-65
2021/08/01 11:05:57;;;;;;;19.05;13.20;;;;;;;;;;5037222;28;20132;-65
2021/08/01 11:08:23;;;;;;;18.98;13.52;;;;;;;;;;5037208;28;20396;-65
2021/08/01 11:11:09;;;;;;;18.13;12.57;;;;;;;;;;5054904;28;20384;-65
2021/08/01 11:13:53;;;;;;;19.38;13.48;;;;;;;;;;5054899;28;20492;-65
2021/08/01 11:16:31;;;;;;;18.83;12.30;;;;;;;;;;5054742;28;20649;-65
2021/08/01 11:18:57;;;;;;;24.38;14.18;;;;;;;;;;5036865;28;20036;-65
2021/08/01 11:21:39;;;;;;;20.95;12.93;;;;;;;;;;5037348;28;20440;-65
2021/08/01 11:24:06;;;;;;;17.67;11.48;;;;;;;;;;5054817;28;20055;-65
2021/08/01 11:26:32;;;;;;;19.10;11.98;;;;;;;;;;5035335;28;20036;-65
2021/08/01 11:29:09;;;;;;;16.75;10.73;;;;;;;;;;5054371;28;20021;-64
2021/08/01 11:31:35;;;;;;;16.77;11.50;;;;;;;;;;5036773;28;20104;-65
2021/08/01 11:34:17;;;;;;;19.88;11.95;;;;;;;;;;5054328;28;20023;-64
2021/08/01 11:36:43;;;;;;;19.33;12.18;;;;;;;;;;5054091;28;20027;-64
2021/08/01 11:39:09;;;;;;;18.30;12.52;;;;;;;;;;5054466;28;20025;-62
2021/08/01 11:41:39;;;;;;;18.15;12.55;;;;;;;;;;5067985;22;20056;-63
2021/08/01 11:44:25;;;;;;;18.50;12.00;;;;;;;;;;5053641;28;20092;-63
2021/08/01 11:46:54;;;;;;;18.50;12.18;;;;;;;;;;5053849;28;20074;-64
2021/08/01 11:49:26;;;;;;;19.02;12.23;;;;;;;;;;5053773;28;20025;-63
2021/08/01 11:51:54;;;;;;;19.17;12.05;;;;;;;;;;5053627;28;20435;-64
2021/08/01 11:54:25;;;;;;;17.08;11.55;;;;;;;;;;5053857;28;20108;-64
2021/08/01 11:56:53;;;;;;;19.52;11.82;;;;;;;;;;5053358;28;20499;-63
2021/08/01 11:59:19;;;;;;;17.25;10.95;;;;;;;;;;5053654;28;20401;-63
2021/08/01 12:01:45;;;;;;;17.67;12.10;;;;;;;;;;5035175;28;20048;-64
2021/08/01 12:04:12;;;;;;;21.30;12.20;;;;;;;;;;5034992;28;20522;-66
2021/08/01 12:06:39;;;;;;;17.45;11.68;;;;;;;;;;5053373;28;20040;-64
2021/08/01 12:09:20;;;;;;;18.85;11.35;;;;;;;;;;5034909;28;20097;-63
2021/08/01 12:11:47;;;;;;;19.55;12.52;;;;;;;;;;5035085;28;20485;-64
2021/08/01 12:14:14;;;;;;;20.45;12.45;;;;;;;;;;5052628;28;20082;-64
2021/08/01 12:16:58;;;;;;;17.02;11.15;;;;;;;;;;5034891;28;20025;-64
2021/08/01 12:19:26;;;;;;;18.58;11.32;;;;;;;;;;5052808;28;20058;-64
2021/08/01 12:21:55;;;;;;;17.63;11.47;;;;;;;;;;5052101;28;20083;-63
2021/08/01 12:24:21;;;;;;;;;;;;;;;;;;5052668;28;20047;-64
2021/08/01 12:26:46;;;;;;;19.23;12.48;;;;;;;;;;5034709;28;19908;-64
2021/08/01 12:29:26;;;;;;;18.95;12.88;;;;;;;;;;5052129;28;20056;-63
2021/08/01 12:31:52;;;;;;;16.80;11.85;;;;;;;;;;5052561;28;20065;-65
2021/08/01 12:34:21;;;;;;;18.00;11.95;;;;;;;;;;5052370;28;20065;-64
2021/08/01 12:36:47;;;;;;;18.27;12.23;;;;;;;;;;5051649;28;20056;-64
2021/08/01 12:39:17;;;;;;;19.45;12.52;;;;;;;;;;5051557;28;20116;-64
2021/08/01 12:41:44;;;;;;;17.17;12.23;;;;;;;;;;5051631;28;20119;-64
2021/08/01 12:44:14;;;;;;;17.25;11.50;;;;;;;;;;5033869;28;20021;-64
2021/08/01 12:46:40;;;;;;;16.20;11.48;;;;;;;;;;5051663;28;20022;-65
2021/08/01 12:49:06;;;;;;;17.90;11.57;;;;;;;;;;5051292;28;20025;-64
2021/08/01 12:51:32;;;;;;;17.17;11.77;;;;;;;;;;5051749;28;20048;-64
2021/08/01 12:53:59;;;;;;;18.10;11.93;;;;;;;;;;5034548;28;20110;-64
2021/08/01 12:56:25;;;;;;;17.98;11.60;;;;;;;;;;5052048;28;20079;-64
2021/08/01 12:58:51;;;;;;;18.80;13.00;;;;;;;;;;5050987;28;20019;-63
2021/08/01 13:01:17;;;;;;;17.33;10.90;;;;;;;;;;5051699;28;20029;-64
2021/08/01 13:03:44;;;;;;;18.77;12.25;;;;;;;;;;5051628;28;20473;-63
2021/08/01 13:06:11;;;;;;;18.35;12.55;;;;;;;;;;5033294;28;20036;-64
2021/08/01 13:08:47;;;;;;;20.52;12.85;;;;;;;;;;5051487;28;20047;-63
2021/08/01 13:11:15;;;;;;;18.52;13.45;;;;;;;;;;5051221;28;20032;-63
2021/08/01 13:13:57;;;;;;;19.85;12.57;;;;;;;;;;5051002;28;20377;-63
2021/08/01 13:16:23;;;;;;;17.75;12.95;;;;;;;;;;5033152;28;20033;-63
2021/08/01 13:18:50;;;;;;;19.48;13.15;;;;;;;;;;5051199;28;20016;-62
2021/08/01 13:21:18;;;;;;;18.15;12.98;;;;;;;;;;5050964;28;20024;-62
2021/08/01 13:23:45;;;;;;;18.48;12.70;;;;;;;;;;5033675;28;20033;-63
2021/08/01 13:26:19;;;;;;;18.88;12.60;;;;;;;;;;5033356;28;20040;-64
2021/08/01 13:28:52;;;;;;;19.35;12.35;;;;;;;;;;5051764;28;20074;-64
2021/08/01 13:31:23;;;;;;;17.40;12.38;;;;;;;;;;5033486;28;20039;-65
2021/08/01 13:33:55;;;;;;;19.48;12.68;;;;;;;;;;5051756;28;20025;-65
2021/08/01 13:36:21;;;;;;;19.52;13.82;;;;;;;;;;5051356;28;20043;-63
2021/08/01 13:38:47;;;;;;;19.52;12.95;;;;;;;;;;5033535;28;20559;-64
2021/08/01 13:41:21;;;;;;;18.85;13.25;;;;;;;;;;5051596;28;20072;-64
2021/08/01 13:44:05;;;;;;;18.75;12.80;;;;;;;;;;5051097;28;20091;-64
2021/08/01 13:46:31;;;;;;;17.45;12.05;;;;;;;;;;5033046;28;20036;-64
2021/08/01 13:48:57;;;;;;;19.10;12.95;;;;;;;;;;5049896;28;20025;-64
2021/08/01 13:51:23;;;;;;;17.38;12.38;;;;;;;;;;5050598;28;20051;-65
2021/08/01 13:53:49;;;;;;;18.15;12.18;;;;;;;;;;5033209;28;20043;-64
2021/08/01 13:56:15;;;;;;;17.65;12.85;;;;;;;;;;5033251;28;20032;-63
2021/08/01 13:58:41;;;;;;;17.05;12.32;;;;;;;;;;5051237;28;20319;-64
2021/08/01 14:01:07;;;;;;;18.80;13.02;;;;;;;;;;5032907;28;20369;-64
2021/08/01 14:03:33;;;;;;;20.38;13.20;;;;;;;;;;5033872;28;20017;-64
2021/08/01 14:06:00;;;;;;;16.92;12.55;;;;;;;;;;5032975;28;20047;-63
2021/08/01 14:08:27;;;;;;;17.85;13.27;;;;;;;;;;5033384;28;20052;-64
2021/08/01 14:10:53;;;;;;;18.10;12.82;;;;;;;;;;5051138;28;20025;-64
2021/08/01 14:13:19;;;;;;;17.75;13.32;;;;;;;;;;5051096;28;20025;-65
2021/08/01 14:15:45;;;;;;;18.25;13.70;;;;;;;;;;5051046;28;20359;-64
2021/08/01 14:18:11;;;;;;;16.88;12.73;;;;;;;;;;5033270;28;20045;-63
2021/08/01 14:20:37;;;;;;;19.67;13.18;;;;;;;;;;5051049;28;20393;-64